createdAt,value
2019-04-14T00:00:33.728Z,0.00
2019-04-14T00:01:32.773Z,0.00
2019-04-14T00:02:33.746Z,0.00
2019-04-14T00:03:32.751Z,0.00
2019-04-14T00:04:33.337Z,0.00
2019-04-14T00:05:34.435Z,0.00
2019-04-14T00:06:32.950Z,0.00
2019-04-14T00:07:32.711Z,0.00
2019-04-14T00:08:32.756Z,0.00
2019-04-14T00:09:33.733Z,0.00
2019-04-14T00:10:33.343Z,0.00
2019-04-14T00:11:32.665Z,0.00
2019-04-14T00:12:33.699Z,0.00
2019-04-14T00:13:32.826Z,0.00
2019-04-14T00:14:33.642Z,0.00
2019-04-14T00:15:38.849Z,0.00
2019-04-14T00:16:33.611Z,0.00
2019-04-14T00:17:32.716Z,0.00
2019-04-14T00:18:33.669Z,0.00
2019-04-14T00:19:32.735Z,0.00
2019-04-14T00:20:33.601Z,0.00
2019-04-14T00:21:32.560Z,0.00
2019-04-14T00:22:33.631Z,0.00
2019-04-14T00:23:32.716Z,0.00
2019-04-14T00:24:33.567Z,0.00
2019-04-14T00:25:32.633Z,0.00
2019-04-14T00:26:33.533Z,0.00
2019-04-14T00:27:32.499Z,0.00
2019-04-14T00:28:33.584Z,0.00
2019-04-14T00:29:32.804Z,0.00
2019-04-14T00:30:33.540Z,0.00
2019-04-14T00:31:32.909Z,0.00
2019-04-14T00:32:33.414Z,0.00
2019-04-14T00:33:32.438Z,0.00
2019-04-14T00:34:33.128Z,0.00
2019-04-14T00:35:32.410Z,0.00
2019-04-14T00:36:32.669Z,0.00
2019-04-14T00:37:33.614Z,0.00
2019-04-14T00:38:32.391Z,0.00
2019-04-14T00:39:33.530Z,0.00
2019-04-14T00:40:33.013Z,0.00
2019-04-14T00:41:41.364Z,0.00
2019-04-14T00:42:34.181Z,0.00
2019-04-14T00:43:33.102Z,0.00
2019-04-14T00:44:32.318Z,0.00
2019-04-14T00:45:41.548Z,0.00
2019-04-14T00:46:34.285Z,0.00
2019-04-14T00:47:33.202Z,0.00
2019-04-14T00:48:32.271Z,0.00
2019-04-14T00:49:33.225Z,0.00
2019-04-14T00:50:32.250Z,0.00
2019-04-14T00:51:33.117Z,0.00
2019-04-14T00:52:32.269Z,0.00
2019-04-14T00:53:32.218Z,0.00
2019-04-14T00:54:32.527Z,0.00
2019-04-14T00:55:32.201Z,0.00
2019-04-14T00:56:32.331Z,0.00
2019-04-14T00:57:33.134Z,0.00
2019-04-14T00:58:32.258Z,0.00
2019-04-14T00:59:33.347Z,0.00
2019-04-14T01:00:32.146Z,0.00
2019-04-14T01:01:33.003Z,0.00
2019-04-14T01:02:32.122Z,0.00
2019-04-14T01:03:33.029Z,0.00
2019-04-14T01:04:32.101Z,0.00
2019-04-14T01:05:34.404Z,0.00
2019-04-14T01:06:34.620Z,0.00
2019-04-14T01:07:32.711Z,0.00
2019-04-14T01:08:32.058Z,0.00
2019-04-14T01:09:32.703Z,0.00
2019-04-14T01:10:32.220Z,0.00
2019-04-14T01:11:32.026Z,0.00
2019-04-14T01:12:32.130Z,0.00
2019-04-14T01:13:33.175Z,0.00
2019-04-14T01:14:32.090Z,0.00
2019-04-14T01:15:46.663Z,0.00
2019-04-14T01:16:34.008Z,0.00
2019-04-14T01:17:32.960Z,0.00
2019-04-14T01:18:32.032Z,0.00
2019-04-14T01:19:32.997Z,0.00
2019-04-14T01:20:31.930Z,0.00
2019-04-14T01:21:32.779Z,0.00
2019-04-14T01:22:31.913Z,0.00
2019-04-14T01:23:32.633Z,0.00
2019-04-14T01:24:31.887Z,0.00
2019-04-14T01:25:32.466Z,0.00
2019-04-14T01:26:33.136Z,0.00
2019-04-14T01:27:32.083Z,0.00
2019-04-14T01:28:32.886Z,0.00
2019-04-14T01:29:32.048Z,0.00
2019-04-14T01:30:32.718Z,0.00
2019-04-14T01:31:31.813Z,0.00
2019-04-14T01:32:32.637Z,0.00
2019-04-14T01:33:31.797Z,0.00
2019-04-14T01:34:32.439Z,0.00
2019-04-14T01:35:31.772Z,0.00
2019-04-14T01:36:32.059Z,0.00
2019-04-14T01:37:31.751Z,0.00
2019-04-14T01:38:31.982Z,0.00
2019-04-14T01:39:32.782Z,0.00
2019-04-14T01:40:31.722Z,0.00
2019-04-14T01:41:32.510Z,0.00
2019-04-14T01:42:31.697Z,0.00
2019-04-14T01:43:32.116Z,0.00
2019-04-14T01:44:31.675Z,0.00
2019-04-14T01:45:31.801Z,0.00
2019-04-14T01:46:34.055Z,0.00
2019-04-14T01:47:31.644Z,0.00
2019-04-14T01:48:32.449Z,0.00
2019-04-14T01:49:31.624Z,0.00
2019-04-14T01:50:32.307Z,0.00
2019-04-14T01:51:31.601Z,0.00
2019-04-14T01:52:32.033Z,0.00
2019-04-14T01:53:31.579Z,0.00
2019-04-14T01:54:32.334Z,0.00
2019-04-14T01:55:31.558Z,0.00
2019-04-14T01:56:31.988Z,0.00
2019-04-14T01:57:32.576Z,0.00
2019-04-14T01:58:31.803Z,0.00
2019-04-14T01:59:32.584Z,0.00
2019-04-14T02:00:31.661Z,0.00
2019-04-14T02:01:32.464Z,0.00
2019-04-14T02:02:31.544Z,0.00
2019-04-14T02:03:32.291Z,0.00
2019-04-14T02:04:31.465Z,0.00
2019-04-14T02:05:32.087Z,0.00
2019-04-14T02:06:31.442Z,0.00
2019-04-14T02:07:31.899Z,0.00
2019-04-14T02:08:31.422Z,0.00
2019-04-14T02:09:31.666Z,0.00
2019-04-14T02:10:32.589Z,0.00
2019-04-14T02:11:31.458Z,0.00
2019-04-14T02:12:32.342Z,0.00
2019-04-14T02:13:31.368Z,0.00
2019-04-14T02:14:32.240Z,0.00
2019-04-14T02:15:31.346Z,0.00
2019-04-14T02:16:39.700Z,0.00
2019-04-14T02:17:32.803Z,0.00
2019-04-14T02:18:31.890Z,0.00
2019-04-14T02:19:32.669Z,0.00
2019-04-14T02:20:31.892Z,0.00
2019-04-14T02:21:32.298Z,0.00
2019-04-14T02:22:31.330Z,0.00
2019-04-14T02:23:32.301Z,0.00
2019-04-14T02:24:31.267Z,0.00
2019-04-14T02:25:31.758Z,0.00
2019-04-14T02:26:31.233Z,0.00
2019-04-14T02:27:31.762Z,0.00
2019-04-14T02:28:31.207Z,0.00
2019-04-14T02:29:31.893Z,0.00
2019-04-14T02:30:39.178Z,0.00
2019-04-14T02:31:57.130Z,0.00
2019-04-14T02:32:56.951Z,0.00
2019-04-14T02:34:21.589Z,0.00
2019-04-14T02:35:00.192Z,0.00
2019-04-14T02:36:12.086Z,0.00
2019-04-14T02:38:05.606Z,0.00
2019-04-14T02:39:08.675Z,0.00
2019-04-14T02:41:04.223Z,0.00
2019-04-14T02:42:07.178Z,0.00
2019-04-14T02:42:54.300Z,0.00
2019-04-14T02:45:00.731Z,0.00
2019-04-14T02:46:10.769Z,0.00
2019-04-14T02:47:15.050Z,0.00
2019-04-14T02:48:03.856Z,0.00
2019-04-14T02:50:02.756Z,0.00
2019-04-14T02:50:55.802Z,0.00
2019-04-14T02:51:56.117Z,0.00
2019-04-14T02:53:01.764Z,0.00
2019-04-14T02:54:19.789Z,0.00
2019-04-14T02:55:01.529Z,0.00
2019-04-14T02:56:08.727Z,0.00
2019-04-14T02:57:01.992Z,0.00
2019-04-14T02:58:01.173Z,0.00
2019-04-14T02:58:58.323Z,0.00
2019-04-14T02:59:58.751Z,0.00
2019-04-14T03:02:56.442Z,0.00
2019-04-14T03:04:13.456Z,0.00
2019-04-14T03:04:59.978Z,0.00
2019-04-14T03:05:58.015Z,0.00
2019-04-14T03:06:56.365Z,0.00
2019-04-14T03:07:59.865Z,0.00
2019-04-14T03:09:53.760Z,0.00
2019-04-14T03:10:55.879Z,0.00
2019-04-14T03:12:02.973Z,0.00
2019-04-14T03:13:01.915Z,0.00
2019-04-14T03:14:01.258Z,0.00
2019-04-14T03:16:02.343Z,0.00
2019-04-14T03:18:16.369Z,0.00
2019-04-14T03:20:05.504Z,0.00
2019-04-14T03:20:59.204Z,0.00
2019-04-14T03:22:07.252Z,0.00
2019-04-14T03:24:01.251Z,0.00
2019-04-14T03:24:42.368Z,0.00
2019-04-14T03:25:49.062Z,0.00
2019-04-14T03:26:54.587Z,0.00
2019-04-14T03:28:12.676Z,0.00
2019-04-14T03:28:50.834Z,0.00
2019-04-14T03:29:59.727Z,0.00
2019-04-14T03:31:11.994Z,0.00
2019-04-14T03:35:12.076Z,0.00
2019-04-14T03:36:30.481Z,0.00
2019-04-14T03:37:59.375Z,0.00
2019-04-14T03:38:59.991Z,0.00
2019-04-14T03:40:01.179Z,0.00
2019-04-14T03:41:00.224Z,0.00
2019-04-14T03:42:02.513Z,0.00
2019-04-14T03:43:04.006Z,0.00
2019-04-14T03:43:54.614Z,0.00
2019-04-14T03:44:56.260Z,0.00
2019-04-14T03:46:04.755Z,0.00
2019-04-14T03:46:57.102Z,0.00
2019-04-14T03:48:17.075Z,0.00
2019-04-14T03:48:58.670Z,0.00
2019-04-14T03:50:00.006Z,4.00
2019-04-14T03:51:06.781Z,4.00
2019-04-14T03:52:55.873Z,0.00
2019-04-14T03:53:53.490Z,4.00
2019-04-14T03:54:52.652Z,4.00
2019-04-14T03:55:41.411Z,4.00
2019-04-14T03:56:31.361Z,4.00
2019-04-14T03:57:32.445Z,4.00
2019-04-14T03:58:31.384Z,8.00
2019-04-14T03:59:30.363Z,8.00
2019-04-14T04:00:31.313Z,8.00
2019-04-14T04:01:30.254Z,8.00
2019-04-14T04:02:31.457Z,12.00
2019-04-14T04:03:30.389Z,12.00
2019-04-14T04:04:31.308Z,16.00
2019-04-14T04:05:30.313Z,16.00
2019-04-14T04:06:31.261Z,20.00
2019-04-14T04:07:30.157Z,28.00
2019-04-14T04:08:31.183Z,28.00
2019-04-14T04:09:30.137Z,36.00
2019-04-14T04:10:31.398Z,40.00
2019-04-14T04:11:30.184Z,44.00
2019-04-14T04:12:31.324Z,48.00
2019-04-14T04:13:30.262Z,52.00
2019-04-14T04:14:31.247Z,60.00
2019-04-14T04:15:30.080Z,60.00
2019-04-14T04:16:31.138Z,72.00
2019-04-14T04:17:30.054Z,80.00
2019-04-14T04:18:30.910Z,96.00
2019-04-14T04:19:30.029Z,104.00
2019-04-14T04:20:30.631Z,112.00
2019-04-14T04:21:31.035Z,124.00
2019-04-14T04:22:30.379Z,148.00
2019-04-14T04:23:31.152Z,176.00
2019-04-14T04:24:31.830Z,180.00
2019-04-14T04:25:31.063Z,200.00
2019-04-14T04:26:30.094Z,220.00
2019-04-14T04:27:30.850Z,248.00
2019-04-14T04:28:29.949Z,292.00
2019-04-14T04:29:30.967Z,308.00
2019-04-14T04:30:29.913Z,324.00
2019-04-14T04:31:30.681Z,352.00
2019-04-14T04:32:29.894Z,388.00
2019-04-14T04:33:30.591Z,380.00
2019-04-14T04:34:29.870Z,376.00
2019-04-14T04:35:30.342Z,388.00
2019-04-14T04:36:29.849Z,364.00
2019-04-14T04:37:30.068Z,340.00
2019-04-14T04:38:29.827Z,380.00
2019-04-14T04:39:30.140Z,368.00
2019-04-14T04:40:31.109Z,408.00
2019-04-14T04:41:29.796Z,384.00
2019-04-14T04:42:30.791Z,384.00
2019-04-14T04:43:29.836Z,356.00
2019-04-14T04:44:29.765Z,356.00
2019-04-14T04:45:30.024Z,400.00
2019-04-14T04:46:30.859Z,412.00
2019-04-14T04:47:29.732Z,408.00
2019-04-14T04:48:30.720Z,444.00
2019-04-14T04:49:31.282Z,424.00
2019-04-14T04:50:30.349Z,444.00
2019-04-14T04:51:29.691Z,504.00
2019-04-14T04:52:30.098Z,472.00
2019-04-14T04:53:30.860Z,488.00
2019-04-14T04:54:30.092Z,536.00
2019-04-14T04:55:30.625Z,524.00
2019-04-14T04:56:29.800Z,552.00
2019-04-14T04:57:30.655Z,520.00
2019-04-14T04:58:30.519Z,536.00
2019-04-14T04:59:30.009Z,548.00
2019-04-14T05:00:30.717Z,548.00
2019-04-14T05:01:29.634Z,640.00
2019-04-14T05:02:30.633Z,648.00
2019-04-14T05:03:29.754Z,680.00
2019-04-14T05:04:30.738Z,688.00
2019-04-14T05:05:29.595Z,620.00
2019-04-14T05:06:30.834Z,664.00
2019-04-14T05:07:29.581Z,728.00
2019-04-14T05:08:30.450Z,680.00
2019-04-14T05:09:29.639Z,672.00
2019-04-14T05:10:30.639Z,644.00
2019-04-14T05:11:29.541Z,692.00
2019-04-14T05:12:30.619Z,652.00
2019-04-14T05:13:29.458Z,684.00
2019-04-14T05:14:30.487Z,660.00
2019-04-14T05:15:29.436Z,644.00
2019-04-14T05:16:30.243Z,664.00
2019-04-14T05:17:29.870Z,680.00
2019-04-14T05:18:29.410Z,728.00
2019-04-14T05:19:33.625Z,756.00
2019-04-14T05:20:31.376Z,840.00
2019-04-14T05:21:29.987Z,836.00
2019-04-14T05:22:29.365Z,884.00
2019-04-14T05:23:29.948Z,880.00
2019-04-14T05:24:29.340Z,908.00
2019-04-14T05:25:29.714Z,1048.00
2019-04-14T05:26:29.322Z,1104.00
2019-04-14T05:27:29.846Z,1180.00
2019-04-14T05:28:29.316Z,1224.00
2019-04-14T05:29:29.749Z,1288.00
2019-04-14T05:30:29.278Z,1248.00
2019-04-14T05:31:30.534Z,1372.00
2019-04-14T05:32:30.421Z,1564.00
2019-04-14T05:33:29.372Z,1648.00
2019-04-14T05:34:30.398Z,1632.00
2019-04-14T05:35:29.223Z,1604.00
2019-04-14T05:36:30.242Z,1564.00
2019-04-14T05:37:29.208Z,1708.00
2019-04-14T05:38:32.101Z,1804.00
2019-04-14T05:39:29.182Z,1876.00
2019-04-14T05:40:30.001Z,1768.00
2019-04-14T05:41:29.161Z,1764.00
2019-04-14T05:42:30.146Z,1984.00
2019-04-14T05:43:38.654Z,2116.00
2019-04-14T05:44:30.126Z,2140.00
2019-04-14T05:45:29.117Z,2424.00
2019-04-14T05:46:29.627Z,2584.00
2019-04-14T05:47:30.433Z,2788.00
2019-04-14T05:48:29.362Z,2768.00
2019-04-14T05:49:38.224Z,2832.00
2019-04-14T05:50:31.260Z,2740.00
2019-04-14T05:51:29.056Z,2864.00
2019-04-14T05:52:29.593Z,3100.00
2019-04-14T05:53:29.033Z,3236.00
2019-04-14T05:54:29.640Z,3012.00
2019-04-14T05:55:29.012Z,3176.00
2019-04-14T05:56:29.616Z,3384.00
2019-04-14T05:57:28.991Z,3220.00
2019-04-14T05:58:29.725Z,3164.00
2019-04-14T05:59:28.969Z,2932.00
2019-04-14T06:00:29.984Z,2748.00
2019-04-14T06:01:29.234Z,2612.00
2019-04-14T06:02:30.496Z,2508.00
2019-04-14T06:03:29.935Z,2416.00
2019-04-14T06:04:28.921Z,2384.00
2019-04-14T06:05:29.628Z,2308.00
2019-04-14T06:06:28.897Z,2356.00
2019-04-14T06:07:28.886Z,2468.00
2019-04-14T06:08:28.875Z,2292.00
2019-04-14T06:09:28.864Z,2152.00
2019-04-14T06:10:28.852Z,2160.00
2019-04-14T06:11:28.844Z,2292.00
2019-04-14T06:12:28.834Z,2096.00
2019-04-14T06:13:28.821Z,2268.00
2019-04-14T06:14:28.811Z,1908.00
2019-04-14T06:15:28.799Z,2056.00
2019-04-14T06:16:28.789Z,2228.00
2019-04-14T06:17:28.777Z,2256.00
2019-04-14T06:18:28.767Z,2076.00
2019-04-14T06:19:36.992Z,1948.00
2019-04-14T06:20:29.745Z,1936.00
2019-04-14T06:21:28.735Z,1980.00
2019-04-14T06:22:28.725Z,1936.00
2019-04-14T06:23:28.717Z,1956.00
2019-04-14T06:24:28.703Z,2224.00
2019-04-14T06:25:28.694Z,2500.00
2019-04-14T06:26:28.736Z,2504.00
2019-04-14T06:27:28.672Z,2820.00
2019-04-14T06:28:28.661Z,2776.00
2019-04-14T06:29:28.651Z,2828.00
2019-04-14T06:30:28.640Z,3164.00
2019-04-14T06:31:28.630Z,3032.00
2019-04-14T06:32:28.618Z,2992.00
2019-04-14T06:33:28.608Z,2776.00
2019-04-14T06:34:28.601Z,2696.00
2019-04-14T06:35:28.586Z,2716.00
2019-04-14T06:36:28.576Z,2672.00
2019-04-14T06:37:28.565Z,2468.00
2019-04-14T06:38:28.564Z,2868.00
2019-04-14T06:39:28.544Z,3028.00
2019-04-14T06:40:28.533Z,3220.00
2019-04-14T06:41:28.524Z,3176.00
2019-04-14T06:42:28.514Z,2636.00
2019-04-14T06:43:28.501Z,2648.00
2019-04-14T06:44:28.491Z,2156.00
2019-04-14T06:45:28.481Z,2256.00
2019-04-14T06:46:28.472Z,2148.00
2019-04-14T06:47:28.458Z,2484.00
2019-04-14T06:48:28.449Z,2440.00
2019-04-14T06:49:28.440Z,2164.00
2019-04-14T06:50:28.429Z,2324.00
2019-04-14T06:51:28.418Z,2720.00
2019-04-14T06:52:28.409Z,2732.00
2019-04-14T06:53:28.395Z,2476.00
2019-04-14T06:54:28.385Z,2544.00
2019-04-14T06:55:28.374Z,2600.00
2019-04-14T06:56:28.364Z,2660.00
2019-04-14T06:57:28.353Z,2620.00
2019-04-14T06:58:28.343Z,2996.00
2019-04-14T06:59:28.332Z,2992.00
2019-04-14T07:00:28.321Z,2728.00
2019-04-14T07:01:28.311Z,2500.00
2019-04-14T07:02:28.300Z,2300.00
2019-04-14T07:03:28.289Z,2368.00
2019-04-14T07:04:28.279Z,2820.00
2019-04-14T07:05:28.268Z,2932.00
2019-04-14T07:06:28.259Z,3144.00
2019-04-14T07:07:28.247Z,3396.00
2019-04-14T07:08:29.934Z,3508.00
2019-04-14T07:09:28.225Z,3612.00
2019-04-14T07:10:28.214Z,3776.00
2019-04-14T07:11:28.205Z,4052.00
2019-04-14T07:12:28.193Z,3988.00
2019-04-14T07:13:28.183Z,3712.00
2019-04-14T07:14:31.669Z,3692.00
2019-04-14T07:15:28.161Z,3756.00
2019-04-14T07:16:28.151Z,3688.00
2019-04-14T07:17:28.140Z,3488.00
2019-04-14T07:18:28.129Z,3472.00
2019-04-14T07:19:28.119Z,3736.00
2019-04-14T07:20:28.110Z,4092.00
2019-04-14T07:21:28.101Z,4020.00
2019-04-14T07:22:28.094Z,4172.00
2019-04-14T07:23:28.076Z,4236.00
2019-04-14T07:24:28.066Z,4176.00
2019-04-14T07:25:28.058Z,4380.00
2019-04-14T07:26:28.047Z,4404.00
2019-04-14T07:27:28.034Z,4016.00
2019-04-14T07:28:28.024Z,3892.00
2019-04-14T07:29:28.013Z,3968.00
2019-04-14T07:30:28.005Z,3800.00
2019-04-14T07:31:27.992Z,3984.00
2019-04-14T07:32:27.982Z,3840.00
2019-04-14T07:33:27.971Z,3768.00
2019-04-14T07:34:27.960Z,3772.00
2019-04-14T07:35:27.950Z,3628.00
2019-04-14T07:36:27.937Z,3500.00
2019-04-14T07:37:27.928Z,3744.00
2019-04-14T07:38:27.920Z,3772.00
2019-04-14T07:39:27.909Z,4076.00
2019-04-14T07:40:27.903Z,4292.00
2019-04-14T07:41:27.885Z,4364.00
2019-04-14T07:42:27.874Z,4300.00
2019-04-14T07:43:27.865Z,4236.00
2019-04-14T07:44:27.853Z,4036.00
2019-04-14T07:45:27.842Z,4316.00
2019-04-14T07:46:27.831Z,4412.00
2019-04-14T07:47:27.821Z,4504.00
2019-04-14T07:48:27.811Z,4620.00
2019-04-14T07:49:27.800Z,4676.00
2019-04-14T07:50:27.788Z,4532.00
2019-04-14T07:51:27.778Z,4380.00
2019-04-14T07:52:27.768Z,4148.00
2019-04-14T07:53:27.757Z,3928.00
2019-04-14T07:54:27.747Z,3800.00
2019-04-14T07:55:27.742Z,3880.00
2019-04-14T07:56:27.729Z,4124.00
2019-04-14T07:57:27.714Z,4236.00
2019-04-14T07:58:27.705Z,4372.00
2019-04-14T07:59:27.693Z,4644.00
2019-04-14T08:00:27.683Z,4952.00
2019-04-14T08:01:27.672Z,5176.00
2019-04-14T08:02:27.668Z,5364.00
2019-04-14T08:03:27.651Z,5536.00
2019-04-14T08:04:27.644Z,5476.00
2019-04-14T08:05:27.628Z,5428.00
2019-04-14T08:06:27.619Z,5380.00
2019-04-14T08:07:27.609Z,5448.00
2019-04-14T08:08:27.599Z,5400.00
2019-04-14T08:09:27.589Z,5288.00
2019-04-14T08:10:27.577Z,5204.00
2019-04-14T08:11:27.565Z,5072.00
2019-04-14T08:12:27.555Z,4800.00
2019-04-14T08:13:27.544Z,4888.00
2019-04-14T08:14:27.534Z,5144.00
2019-04-14T08:15:27.523Z,5256.00
2019-04-14T08:16:27.512Z,5028.00
2019-04-14T08:17:27.502Z,4956.00
2019-04-14T08:18:27.493Z,4944.00
2019-04-14T08:19:27.481Z,4968.00
2019-04-14T08:20:28.112Z,5392.00
2019-04-14T08:21:27.459Z,5412.00
2019-04-14T08:22:27.449Z,5432.00
2019-04-14T08:23:27.438Z,5596.00
2019-04-14T08:24:27.429Z,5656.00
2019-04-14T08:25:27.417Z,6052.00
2019-04-14T08:26:27.406Z,6432.00
2019-04-14T08:27:27.397Z,7028.00
2019-04-14T08:28:27.389Z,7296.00
2019-04-14T08:29:27.374Z,7524.00
2019-04-14T08:30:27.364Z,7572.00
2019-04-14T08:31:27.353Z,7796.00
2019-04-14T08:32:27.344Z,8080.00
2019-04-14T08:33:27.331Z,8156.00
2019-04-14T08:34:27.323Z,8328.00
2019-04-14T08:35:27.310Z,8564.00
2019-04-14T08:36:27.304Z,8396.00
2019-04-14T08:37:27.288Z,8124.00
2019-04-14T08:38:27.277Z,8016.00
2019-04-14T08:39:27.269Z,8356.00
2019-04-14T08:40:27.256Z,8892.00
2019-04-14T08:41:27.252Z,9272.00
2019-04-14T08:42:27.235Z,9392.00
2019-04-14T08:43:27.226Z,8844.00
2019-04-14T08:44:27.213Z,8136.00
2019-04-14T08:45:27.202Z,7364.00
2019-04-14T08:46:27.192Z,7068.00
2019-04-14T08:47:27.181Z,7152.00
2019-04-14T08:48:27.173Z,7044.00
2019-04-14T08:49:27.161Z,7188.00
2019-04-14T08:50:38.694Z,7188.00
2019-04-14T08:51:28.141Z,7376.00
2019-04-14T08:52:27.144Z,7500.00
2019-04-14T08:53:27.118Z,7844.00
2019-04-14T08:54:27.107Z,8316.00
2019-04-14T08:55:27.098Z,8368.00
2019-04-14T08:56:27.086Z,8324.00
2019-04-14T08:57:27.074Z,8060.00
2019-04-14T08:58:27.073Z,7528.00
2019-04-14T08:59:27.054Z,7052.00
2019-04-14T09:00:27.042Z,6756.00
2019-04-14T09:01:27.031Z,6360.00
2019-04-14T09:02:27.023Z,6660.00
2019-04-14T09:03:27.066Z,6692.00
2019-04-14T09:04:27.001Z,6848.00
2019-04-14T09:05:26.991Z,7216.00
2019-04-14T09:06:26.979Z,7560.00
2019-04-14T09:07:26.967Z,7552.00
2019-04-14T09:08:26.957Z,7468.00
2019-04-14T09:09:26.949Z,7412.00
2019-04-14T09:10:26.938Z,7336.00
2019-04-14T09:11:26.927Z,6984.00
2019-04-14T09:12:26.914Z,6980.00
2019-04-14T09:13:26.906Z,6840.00
2019-04-14T09:14:26.892Z,6944.00
2019-04-14T09:15:26.883Z,7076.00
2019-04-14T09:16:26.872Z,7308.00
2019-04-14T09:17:26.863Z,7748.00
2019-04-14T09:18:26.852Z,8244.00
2019-04-14T09:19:26.840Z,8932.00
2019-04-14T09:20:26.829Z,9536.00
2019-04-14T09:21:26.819Z,9800.00
2019-04-14T09:22:26.808Z,9988.00
2019-04-14T09:23:26.797Z,10184.00
2019-04-14T09:24:26.785Z,10132.00
2019-04-14T09:25:26.775Z,10428.00
2019-04-14T09:26:26.767Z,10192.00
2019-04-14T09:27:26.768Z,10228.00
2019-04-14T09:28:26.743Z,10648.00
2019-04-14T09:29:26.737Z,11012.00
2019-04-14T09:30:26.723Z,10916.00
2019-04-14T09:31:26.712Z,10408.00
2019-04-14T09:32:26.703Z,9452.00
2019-04-14T09:33:26.691Z,8672.00
2019-04-14T09:34:26.683Z,8048.00
2019-04-14T09:35:26.674Z,7516.00
2019-04-14T09:36:26.659Z,7308.00
2019-04-14T09:37:26.653Z,7264.00
2019-04-14T09:38:26.636Z,7144.00
2019-04-14T09:39:26.627Z,6404.00
2019-04-14T09:40:26.614Z,6136.00
2019-04-14T09:41:26.603Z,6408.00
2019-04-14T09:42:26.594Z,7124.00
2019-04-14T09:43:26.583Z,6824.00
2019-04-14T09:44:26.573Z,6592.00
2019-04-14T09:45:26.564Z,6316.00
2019-04-14T09:46:26.551Z,5948.00
2019-04-14T09:47:26.540Z,5532.00
2019-04-14T09:48:26.530Z,5408.00
2019-04-14T09:49:26.520Z,5316.00
2019-04-14T09:50:26.509Z,5436.00
2019-04-14T09:51:26.500Z,4912.00
2019-04-14T09:52:26.487Z,5056.00
2019-04-14T09:53:26.475Z,5084.00
2019-04-14T09:54:26.465Z,5120.00
2019-04-14T09:55:26.456Z,5100.00
2019-04-14T09:56:26.445Z,4996.00
2019-04-14T09:57:26.437Z,5184.00
2019-04-14T09:58:26.425Z,5324.00
2019-04-14T09:59:26.412Z,5420.00
2019-04-14T10:00:26.405Z,5344.00
2019-04-14T10:01:26.391Z,5148.00
2019-04-14T10:02:26.380Z,4964.00
2019-04-14T10:03:26.369Z,4840.00
2019-04-14T10:04:26.361Z,4792.00
2019-04-14T10:05:26.352Z,4648.00
2019-04-14T10:06:26.348Z,4772.00
2019-04-14T10:07:26.327Z,4828.00
2019-04-14T10:08:26.318Z,4760.00
2019-04-14T10:09:26.307Z,4564.00
2019-04-14T10:10:26.298Z,4536.00
2019-04-14T10:11:26.285Z,4292.00
2019-04-14T10:12:26.274Z,4216.00
2019-04-14T10:13:26.267Z,4320.00
2019-04-14T10:14:26.255Z,4172.00
2019-04-14T10:15:26.241Z,4144.00
2019-04-14T10:16:26.232Z,3844.00
2019-04-14T10:17:26.220Z,3696.00
2019-04-14T10:18:26.210Z,3940.00
2019-04-14T10:19:26.207Z,3960.00
2019-04-14T10:20:26.188Z,3904.00
2019-04-14T10:21:26.177Z,3824.00
2019-04-14T10:22:33.882Z,3648.00
2019-04-14T10:23:27.155Z,3800.00
2019-04-14T10:24:26.146Z,4064.00
2019-04-14T10:25:26.137Z,4208.00
2019-04-14T10:26:26.124Z,4252.00
2019-04-14T10:27:26.113Z,4252.00
2019-04-14T10:28:26.102Z,4084.00
2019-04-14T10:29:26.091Z,4108.00
2019-04-14T10:30:26.083Z,4140.00
2019-04-14T10:31:26.070Z,4348.00
2019-04-14T10:32:26.059Z,4232.00
2019-04-14T10:33:26.049Z,4044.00
2019-04-14T10:34:26.040Z,4144.00
2019-04-14T10:35:26.029Z,4464.00
2019-04-14T10:36:26.025Z,4520.00
2019-04-14T10:37:26.006Z,4336.00
2019-04-14T10:38:25.996Z,4196.00
2019-04-14T10:39:25.987Z,3948.00
2019-04-14T10:40:25.977Z,4060.00
2019-04-14T10:41:25.966Z,4224.00
2019-04-14T10:42:25.957Z,4188.00
2019-04-14T10:43:25.942Z,3932.00
2019-04-14T10:44:25.934Z,3816.00
2019-04-14T10:45:25.924Z,4172.00
2019-04-14T10:46:25.910Z,4408.00
2019-04-14T10:47:25.900Z,3816.00
2019-04-14T10:48:25.916Z,3524.00
2019-04-14T10:49:25.879Z,3800.00
2019-04-14T10:50:30.999Z,4312.00
2019-04-14T10:51:30.267Z,4340.00
2019-04-14T10:52:26.846Z,4468.00
2019-04-14T10:53:25.839Z,4644.00
2019-04-14T10:54:25.882Z,4740.00
2019-04-14T10:55:25.816Z,5056.00
2019-04-14T10:56:25.805Z,5200.00
2019-04-14T10:57:25.794Z,5304.00
2019-04-14T10:58:25.784Z,5304.00
2019-04-14T10:59:25.773Z,5180.00
2019-04-14T11:00:25.762Z,5052.00
2019-04-14T11:01:25.753Z,4968.00
2019-04-14T11:02:25.739Z,4976.00
2019-04-14T11:03:25.730Z,4944.00
2019-04-14T11:04:25.718Z,4976.00
2019-04-14T11:05:25.712Z,4952.00
2019-04-14T11:06:25.702Z,4984.00
2019-04-14T11:07:25.709Z,5080.00
2019-04-14T11:08:25.678Z,5196.00
2019-04-14T11:09:25.665Z,5220.00
2019-04-14T11:10:25.655Z,5200.00
2019-04-14T11:11:25.645Z,5228.00
2019-04-14T11:12:25.635Z,5292.00
2019-04-14T11:13:25.621Z,5332.00
2019-04-14T11:14:25.611Z,5368.00
2019-04-14T11:15:25.601Z,5404.00
2019-04-14T11:16:25.594Z,5460.00
2019-04-14T11:17:25.581Z,5548.00
2019-04-14T11:18:25.568Z,5800.00
2019-04-14T11:19:25.593Z,6252.00
2019-04-14T11:20:25.549Z,6812.00
2019-04-14T11:21:25.537Z,7316.00
2019-04-14T11:22:25.532Z,7712.00
2019-04-14T11:23:25.516Z,7952.00
2019-04-14T11:24:25.508Z,7996.00
2019-04-14T11:25:25.502Z,7960.00
2019-04-14T11:26:25.484Z,7932.00
2019-04-14T11:27:25.475Z,8016.00
2019-04-14T11:28:25.463Z,8064.00
2019-04-14T11:29:25.452Z,7968.00
2019-04-14T11:30:25.443Z,7920.00
2019-04-14T11:31:25.429Z,7936.00
2019-04-14T11:32:25.419Z,8004.00
2019-04-14T11:33:25.408Z,8164.00
2019-04-14T11:34:25.398Z,8228.00
2019-04-14T11:35:25.402Z,8344.00
2019-04-14T11:36:25.383Z,8644.00
2019-04-14T11:37:25.369Z,8720.00
2019-04-14T11:38:25.358Z,8664.00
2019-04-14T11:39:25.344Z,8448.00
2019-04-14T11:40:25.333Z,7876.00
2019-04-14T11:41:25.326Z,6896.00
2019-04-14T11:42:25.326Z,6588.00
2019-04-14T11:43:25.301Z,6960.00
2019-04-14T11:44:25.290Z,7428.00
2019-04-14T11:45:25.280Z,7956.00
2019-04-14T11:46:25.270Z,8304.00
2019-04-14T11:47:25.257Z,8664.00
2019-04-14T11:48:25.251Z,8996.00
2019-04-14T11:49:25.246Z,9520.00
2019-04-14T11:50:25.225Z,10028.00
2019-04-14T11:51:25.221Z,10708.00
2019-04-14T11:52:25.204Z,11716.00
2019-04-14T11:53:25.192Z,12752.00
2019-04-14T11:54:25.183Z,13724.00
2019-04-14T11:55:25.172Z,14196.00
2019-04-14T11:56:25.214Z,13724.00
2019-04-14T11:57:25.149Z,13536.00
2019-04-14T11:58:25.142Z,13856.00
2019-04-14T11:59:25.130Z,13928.00
2019-04-14T12:00:25.121Z,13940.00
2019-04-14T12:01:25.114Z,13784.00
2019-04-14T12:02:25.101Z,13580.00
2019-04-14T12:03:25.085Z,13488.00
2019-04-14T12:04:25.087Z,13496.00
2019-04-14T12:05:25.074Z,13420.00
2019-04-14T12:06:25.062Z,13432.00
2019-04-14T12:07:25.046Z,13580.00
2019-04-14T12:08:25.031Z,13700.00
2019-04-14T12:09:25.022Z,13880.00
2019-04-14T12:10:25.010Z,13668.00
2019-04-14T12:11:24.999Z,13836.00
2019-04-14T12:12:24.989Z,14232.00
2019-04-14T12:13:24.977Z,14360.00
2019-04-14T12:14:24.970Z,14684.00
2019-04-14T12:15:24.955Z,15148.00
2019-04-14T12:16:24.946Z,15032.00
2019-04-14T12:17:24.935Z,13864.00
2019-04-14T12:18:24.935Z,12020.00
2019-04-14T12:19:24.917Z,11572.00
2019-04-14T12:20:24.905Z,12200.00
2019-04-14T12:21:24.922Z,12728.00
2019-04-14T12:22:24.880Z,12952.00
2019-04-14T12:23:24.871Z,13168.00
2019-04-14T12:24:24.859Z,13064.00
2019-04-14T12:25:24.850Z,13240.00
2019-04-14T12:26:24.838Z,13020.00
2019-04-14T12:27:24.826Z,12692.00
2019-04-14T12:28:24.817Z,12116.00
2019-04-14T12:29:26.029Z,12148.00
2019-04-14T12:30:24.793Z,12112.00
2019-04-14T12:31:24.788Z,12220.00
2019-04-14T12:32:24.774Z,11284.00
2019-04-14T12:33:24.763Z,11504.00
2019-04-14T12:34:24.752Z,12100.00
2019-04-14T12:35:24.740Z,12312.00
2019-04-14T12:36:24.730Z,12652.00
2019-04-14T12:37:24.719Z,13052.00
2019-04-14T12:38:24.709Z,13504.00
2019-04-14T12:39:24.698Z,13936.00
2019-04-14T12:40:24.688Z,14176.00
2019-04-14T12:41:24.683Z,14148.00
2019-04-14T12:42:24.665Z,14264.00
2019-04-14T12:43:24.655Z,14356.00